createdAt,value
2023-05-21T00:00:15.447Z,101335.94
2023-05-21T00:02:42.042Z,101335.13
2023-05-21T00:05:14.732Z,101334.84
2023-05-21T00:07:40.824Z,101338.16
2023-05-21T00:10:06.907Z,101334.56
2023-05-21T00:12:32.571Z,101332.63
2023-05-21T00:14:58.965Z,101337.34
2023-05-21T00:17:25.298Z,101330.97
2023-05-21T00:19:51.136Z,101327.66
2023-05-21T00:22:17.110Z,101330.97
2023-05-21T00:24:45.090Z,101320.44
2023-05-21T00:27:11.617Z,101318.50
2023-05-21T00:29:37.459Z,101327.06
2023-05-21T00:32:03.375Z,101321.25
2023-05-21T00:34:29.029Z,101322.34
2023-05-21T00:36:54.997Z,101313.50
2023-05-21T00:39:20.945Z,101325.13
2023-05-21T00:41:47.779Z,101318.75
2023-05-21T00:44:14.191Z,101319.56
2023-05-21T00:46:40.436Z,101313.22
2023-05-21T00:49:06.456Z,101309.34
2023-05-21T00:51:32.359Z,101315.72
2023-05-21T00:53:58.106Z,101303.25
2023-05-21T00:56:24.132Z,101305.72
2023-05-21T00:58:51.079Z,101311.56
2023-05-21T01:01:17.581Z,101304.91
2023-05-21T01:03:43.552Z,101313.22
2023-05-21T01:06:10.196Z,101304.38
2023-05-21T01:08:36.826Z,101307.97
2023-05-21T01:11:03.129Z,101313.50
2023-05-21T01:13:29.148Z,101306.56
2023-05-21T01:15:55.008Z,101308.22
2023-05-21T01:18:21.183Z,101303.25
2023-05-21T01:20:48.335Z,101305.72
2023-05-21T01:23:16.314Z,101304.06
2023-05-21T01:25:42.378Z,101302.13
2023-05-21T01:28:08.062Z,101305.72
2023-05-21T01:30:34.626Z,101299.34
2023-05-21T01:33:03.228Z,101299.09
2023-05-21T01:35:34.981Z,101293.81
2023-05-21T01:38:30.630Z,101283.84
2023-05-21T01:41:02.794Z,101280.78
2023-05-21T01:43:31.067Z,101285.78
2023-05-21T01:45:56.647Z,101287.19
2023-05-21T01:48:24.132Z,101286.31
2023-05-21T01:50:50.482Z,101283.53
2023-05-21T01:53:16.490Z,101289.94
2023-05-21T01:55:42.882Z,101280.78
2023-05-21T01:58:09.236Z,101277.19
2023-05-21T02:00:35.101Z,101279.94
2023-05-21T02:03:00.839Z,101276.91
2023-05-21T02:05:26.588Z,101271.63
2023-05-21T02:07:52.506Z,101275.22
2023-05-21T02:10:18.534Z,101277.72
2023-05-21T02:12:44.241Z,101268.88
2023-05-21T02:15:10.149Z,101270.00
2023-05-21T02:17:37.833Z,101268.88
2023-05-21T02:20:10.860Z,101268.88
2023-05-21T02:22:39.717Z,101266.91
2023-05-21T02:25:08.036Z,101270.25
2023-05-21T02:27:35.772Z,101268.88
2023-05-21T02:30:03.659Z,101263.31
2023-05-21T02:32:31.036Z,101266.09
2023-05-21T02:34:57.830Z,101262.22
2023-05-21T02:37:26.747Z,101266.66
2023-05-21T02:39:53.669Z,101259.72
2023-05-21T02:42:19.641Z,101261.38
2023-05-21T02:44:45.289Z,101261.69
2023-05-21T02:47:11.773Z,101253.34
2023-05-21T02:49:37.526Z,101253.06
2023-05-21T02:52:03.975Z,101250.59
2023-05-21T02:54:29.652Z,101252.84
2023-05-21T02:56:55.803Z,101247.81
2023-05-21T02:59:21.446Z,101253.63
2023-05-21T03:01:47.183Z,101250.28
2023-05-21T03:04:12.921Z,101246.16
2023-05-21T03:06:38.574Z,101244.75
2023-05-21T03:09:05.144Z,101249.47
2023-05-21T03:11:30.974Z,101244.75
2023-05-21T03:13:56.710Z,101242.28
2023-05-21T03:16:22.466Z,101236.97
2023-05-21T03:18:48.465Z,101234.78
2023-05-21T03:21:14.841Z,101237.28
2023-05-21T03:23:41.774Z,101228.41
2023-05-21T03:26:07.720Z,101236.16
2023-05-21T03:28:34.385Z,101232.84
2023-05-21T03:31:00.164Z,101235.59
2023-05-21T03:33:25.880Z,101232.00
2023-05-21T03:35:51.529Z,101241.69
2023-05-21T03:38:17.173Z,101233.38
2023-05-21T03:40:42.961Z,101241.44
2023-05-21T03:43:08.602Z,101243.91
2023-05-21T03:45:34.544Z,101230.06
2023-05-21T03:48:01.146Z,101224.53
2023-05-21T03:50:26.957Z,101230.06
2023-05-21T03:52:52.618Z,101245.59
2023-05-21T03:55:18.297Z,101235.59
2023-05-21T03:57:43.957Z,101236.16
2023-05-21T04:00:09.890Z,101235.59
2023-05-21T04:02:35.680Z,101235.59
2023-05-21T04:05:01.416Z,101239.19
2023-05-21T04:07:29.082Z,101238.94
2023-05-21T04:09:55.200Z,101249.72
2023-05-21T04:12:21.484Z,101246.44
2023-05-21T04:14:47.247Z,101241.97
2023-05-21T04:17:13.093Z,101242.81
2023-05-21T04:19:38.801Z,101238.94
2023-05-21T04:22:04.613Z,101238.09
2023-05-21T04:24:30.449Z,101239.75
2023-05-21T04:27:00.298Z,101236.44
2023-05-21T04:29:27.099Z,101242.53
2023-05-21T04:31:52.798Z,101244.19
2023-05-21T04:34:19.065Z,101246.94
2023-05-21T04:36:45.181Z,101245.59
2023-05-21T04:39:11.557Z,101241.41
2023-05-21T04:41:38.123Z,101244.75
2023-05-21T04:44:06.118Z,101246.69
2023-05-21T04:46:31.778Z,101250.00
2023-05-21T04:49:01.987Z,101241.97
2023-05-21T04:51:28.127Z,101239.19
2023-05-21T04:53:53.862Z,101250.00
2023-05-21T04:56:20.963Z,101251.13
2023-05-21T04:58:47.324Z,101248.06
2023-05-21T05:01:14.124Z,101243.34
2023-05-21T05:03:39.807Z,101244.47
2023-05-21T05:06:06.907Z,101249.19
2023-05-21T05:08:33.118Z,101243.91
2023-05-21T05:10:58.816Z,101242.81
2023-05-21T05:13:25.302Z,101249.72
2023-05-21T05:15:54.566Z,101244.19
2023-05-21T05:18:20.441Z,101245.00
2023-05-21T05:20:46.893Z,101242.53
2023-05-21T05:23:12.608Z,101237.81
2023-05-21T05:25:38.448Z,101235.34
2023-05-21T05:28:04.294Z,101233.66
2023-05-21T05:30:29.926Z,101235.34
2023-05-21T05:32:55.746Z,101236.69
2023-05-21T05:35:21.421Z,101233.91
2023-05-21T05:37:47.100Z,101230.00
2023-05-21T05:40:12.774Z,101227.53
2023-05-21T05:42:38.469Z,101220.34
2023-05-21T05:45:04.271Z,101229.50
2023-05-21T05:47:30.536Z,101223.13
2023-05-21T05:49:56.298Z,101230.63
2023-05-21T05:52:21.982Z,101235.03
2023-05-21T05:54:47.632Z,101228.97
2023-05-21T05:57:13.466Z,101236.44
2023-05-21T05:59:39.129Z,101230.88
2023-05-21T06:02:04.999Z,101229.78
2023-05-21T06:04:30.768Z,101226.19
2023-05-21T06:06:57.806Z,101222.31
2023-05-21T06:09:24.003Z,101214.25
2023-05-21T06:11:49.684Z,101218.97
2023-05-21T06:14:15.374Z,101219.53
2023-05-21T06:16:41.118Z,101219.22
2023-05-21T06:19:06.900Z,101218.41
2023-05-21T06:21:32.599Z,101223.44
2023-05-21T06:23:58.515Z,101227.28
2023-05-21T06:26:24.331Z,101227.28
2023-05-21T06:28:50.078Z,101227.84
2023-05-21T06:31:16.032Z,101226.19
2023-05-21T06:33:41.782Z,101224.78
2023-05-21T06:36:07.540Z,101224.47
2023-05-21T06:38:33.365Z,101228.66
2023-05-21T06:40:59.015Z,101226.72
2023-05-21T06:43:24.765Z,101227.84
2023-05-21T06:45:50.467Z,101227.03
2023-05-21T06:48:16.620Z,101221.19
2023-05-21T06:50:42.857Z,101225.06
2023-05-21T06:53:09.094Z,101225.06
2023-05-21T06:55:35.280Z,101227.84
2023-05-21T06:58:01.143Z,101229.19
2023-05-21T07:00:26.870Z,101217.28
2023-05-21T07:02:52.665Z,101223.94
2023-05-21T07:05:18.402Z,101222.00
2023-05-21T07:07:44.060Z,101222.31
2023-05-21T07:10:09.804Z,101225.06
2023-05-21T07:12:35.435Z,101233.38
2023-05-21T07:15:01.224Z,101227.84
2023-05-21T07:17:26.952Z,101232.56
2023-05-21T07:19:52.661Z,101226.72
2023-05-21T07:22:18.294Z,101231.97
2023-05-21T07:24:43.941Z,101230.31
2023-05-21T07:27:24.658Z,101233.09
2023-05-21T07:29:51.188Z,101232.56
2023-05-21T07:32:16.836Z,101236.97
2023-05-21T07:34:42.526Z,101225.06
2023-05-21T07:37:08.169Z,101236.44
2023-05-21T07:39:33.833Z,101231.44
2023-05-21T07:41:59.624Z,101234.22
2023-05-21T07:44:25.458Z,101232.56
2023-05-21T07:46:51.091Z,101232.00
2023-05-21T07:49:17.080Z,101237.28
2023-05-21T07:51:43.363Z,101234.72
2023-05-21T07:54:09.424Z,101224.25
2023-05-21T07:56:35.188Z,101233.09
2023-05-21T07:59:00.854Z,101227.53
2023-05-21T08:01:28.663Z,101227.25
2023-05-21T08:03:54.908Z,101225.59
2023-05-21T08:06:21.532Z,101226.72
2023-05-21T08:08:47.273Z,101234.22
2023-05-21T08:11:12.996Z,101221.47
2023-05-21T08:13:38.649Z,101227.84
2023-05-21T08:16:05.164Z,101221.19
2023-05-21T08:18:31.098Z,101218.41
2023-05-21T08:20:56.924Z,101218.94
2023-05-21T08:23:22.569Z,101221.19
2023-05-21T08:25:48.310Z,101221.19
2023-05-21T08:28:13.978Z,101225.91
2023-05-21T08:30:40.383Z,101226.72
2023-05-21T08:33:06.078Z,101232.25
2023-05-21T08:35:31.791Z,101235.03
2023-05-21T08:37:57.938Z,101221.19
2023-05-21T08:40:23.621Z,101228.38
2023-05-21T08:42:49.705Z,101227.84
2023-05-21T08:45:20.228Z,101230.88
2023-05-21T08:47:46.016Z,101221.19
2023-05-21T08:50:13.165Z,101214.81
2023-05-21T08:52:39.111Z,101218.66
2023-05-21T08:55:05.402Z,101208.97
2023-05-21T08:57:31.240Z,101215.63
2023-05-21T08:59:57.540Z,101210.91
2023-05-21T09:02:24.339Z,101202.06
2023-05-21T09:04:56.294Z,101206.19
2023-05-21T09:07:24.420Z,101200.66
2023-05-21T09:09:56.559Z,101198.47
2023-05-21T09:12:24.618Z,101204.25
2023-05-21T09:14:50.587Z,101200.94
2023-05-21T09:17:16.283Z,101203.41
2023-05-21T09:20:08.756Z,101199.53
2023-05-21T09:22:37.027Z,101204.53
2023-05-21T09:25:03.962Z,101209.25
2023-05-21T09:27:29.735Z,101198.19
2023-05-21T09:29:55.384Z,101200.66
2023-05-21T09:32:21.032Z,101207.84
2023-05-21T09:34:47.186Z,101205.38
2023-05-21T09:37:23.879Z,101200.66
2023-05-21T09:39:52.605Z,101201.78
2023-05-21T09:42:20.261Z,101209.50
2023-05-21T09:44:46.716Z,101200.38
2023-05-21T09:47:12.375Z,101195.94
2023-05-21T09:49:38.038Z,101195.09
2023-05-21T09:52:03.864Z,101186.28
2023-05-21T09:54:32.468Z,101193.16
2023-05-21T09:57:00.471Z,101194.59
2023-05-21T09:59:34.978Z,101194.28
2023-05-21T10:02:01.426Z,101191.00
2023-05-21T10:04:29.812Z,101178.47
2023-05-21T10:06:55.901Z,101180.13
2023-05-21T10:09:21.693Z,101185.16
2023-05-21T10:11:49.000Z,101185.16
2023-05-21T10:14:18.094Z,101179.31
2023-05-21T10:16:44.586Z,101172.09
2023-05-21T10:19:10.642Z,101169.03
2023-05-21T10:21:36.547Z,101168.22
2023-05-21T10:24:03.413Z,101173.75
2023-05-21T10:26:29.794Z,101167.38
2023-05-21T10:28:56.424Z,101160.19
2023-05-21T10:31:22.272Z,101161.03
2023-05-21T10:33:48.260Z,101164.91
2023-05-21T10:36:16.489Z,101159.38
2023-05-21T10:38:43.151Z,101164.63
2023-05-21T10:41:09.156Z,101166.56
2023-05-21T10:43:58.340Z,101163.50
2023-05-21T10:49:43.685Z,101146.03
2023-05-21T10:52:34.106Z,101151.59
2023-05-21T10:55:39.561Z,101139.97
2023-05-21T10:58:45.024Z,101140.22
2023-05-21T11:01:11.150Z,101139.41
2023-05-21T11:03:37.918Z,101140.50
2023-05-21T11:06:05.615Z,101136.91
2023-05-21T11:08:34.766Z,101135.25
2023-05-21T11:11:01.609Z,101140.50
2023-05-21T11:13:31.849Z,101128.59
2023-05-21T11:21:13.407Z,101132.19
2023-05-21T11:24:05.505Z,101126.38
2023-05-21T11:29:39.649Z,101113.59
2023-05-21T11:32:08.282Z,101114.44
2023-05-21T11:34:39.219Z,101122.22
2023-05-21T11:39:55.554Z,101112.78
2023-05-21T11:42:30.901Z,101118.31
2023-05-21T11:44:58.378Z,101111.94
2023-05-21T11:47:25.567Z,101114.44
2023-05-21T11:49:51.281Z,101113.31
2023-05-21T11:52:18.839Z,101106.41
2023-05-21T11:54:47.687Z,101104.75
2023-05-21T11:57:18.382Z,101104.75
2023-05-21T11:59:44.747Z,101103.63
2023-05-21T12:02:15.670Z,101103.38
2023-05-21T12:04:41.781Z,101099.75
2023-05-21T12:07:09.361Z,101099.47
2023-05-21T12:09:41.717Z,101091.16
2023-05-21T12:12:08.444Z,101098.09
2023-05-21T12:14:35.252Z,101099.75
2023-05-21T12:17:02.808Z,101099.47
2023-05-21T12:19:31.987Z,101079.25
2023-05-21T12:22:00.269Z,101083.97
2023-05-21T12:24:26.320Z,101075.91
2023-05-21T12:26:52.027Z,101085.88
2023-05-21T12:29:17.746Z,101075.91
2023-05-21T12:31:49.127Z,101080.34
2023-05-21T12:34:18.377Z,101079.50
2023-05-21T12:36:47.400Z,101081.19
2023-05-21T12:39:14.311Z,101077.56
2023-05-21T12:41:39.989Z,101075.66
2023-05-21T12:44:07.822Z,101068.97
2023-05-21T12:46:33.728Z,101067.59
2023-05-21T12:48:59.453Z,101074.53
2023-05-21T12:51:25.097Z,101063.72
2023-05-21T12:53:50.727Z,101065.66
2023-05-21T12:56:16.364Z,101064.56
2023-05-21T12:58:42.200Z,101063.72
2023-05-21T13:01:08.967Z,101056.25
2023-05-21T13:03:35.265Z,101052.63
2023-05-21T13:06:01.679Z,101062.63
2023-05-21T13:08:27.568Z,101053.47
2023-05-21T13:10:53.221Z,101055.41
2023-05-21T13:13:18.878Z,101062.63
2023-05-21T13:15:44.557Z,101053.16
2023-05-21T13:18:11.501Z,101056.25
2023-05-21T13:20:37.745Z,101060.66
2023-05-21T13:23:06.229Z,101054.28
2023-05-21T13:25:32.870Z,101061.78
2023-05-21T13:28:02.111Z,101058.47
2023-05-21T13:30:27.785Z,101055.94
2023-05-21T13:32:53.554Z,101049.56
2023-05-21T13:35:19.684Z,101047.06
2023-05-21T13:37:45.554Z,101042.09
2023-05-21T13:40:14.071Z,101047.63
2023-05-21T13:42:39.918Z,101036.28
2023-05-21T13:45:07.328Z,101040.44
2023-05-21T13:47:33.242Z,101037.38
2023-05-21T13:49:58.951Z,101039.31
2023-05-21T13:52:24.624Z,101049.84
2023-05-21T13:54:50.273Z,101041.25
2023-05-21T13:57:16.097Z,101045.97
2023-05-21T13:59:41.958Z,101044.84
2023-05-21T14:02:08.576Z,101034.06
2023-05-21T14:04:34.288Z,101033.22
2023-05-21T14:07:00.296Z,101037.13
2023-05-21T14:09:26.449Z,101030.19
2023-05-21T14:11:54.230Z,101042.38
2023-05-21T14:14:19.879Z,101034.91
2023-05-21T14:16:46.354Z,101040.44
2023-05-21T14:19:12.138Z,101044.03
2023-05-21T14:21:37.854Z,101043.22
2023-05-21T14:24:03.790Z,101043.22
2023-05-21T14:26:29.798Z,101046.81
2023-05-21T14:28:55.546Z,101052.03
2023-05-21T14:31:22.375Z,101045.97
2023-05-21T14:33:48.432Z,101045.69
2023-05-21T14:36:14.445Z,101049.00
2023-05-21T14:38:40.097Z,101043.22
2023-05-21T14:41:06.366Z,101037.66
2023-05-21T14:43:32.694Z,101032.94
2023-05-21T14:45:58.388Z,101032.94
2023-05-21T14:48:24.064Z,101036.00
2023-05-21T14:50:50.489Z,101029.88
2023-05-21T14:53:16.531Z,101025.44
2023-05-21T14:55:42.609Z,101030.19
2023-05-21T14:58:08.420Z,101030.44
2023-05-21T15:00:35.328Z,101023.50
2023-05-21T15:03:01.216Z,101017.97
2023-05-21T15:05:28.459Z,101024.63
2023-05-21T15:07:55.760Z,101012.72
2023-05-21T15:10:23.210Z,101016.31
2023-05-21T15:12:49.562Z,101018.25
2023-05-21T15:15:16.301Z,101013.25
2023-05-21T15:17:42.524Z,101004.41
2023-05-21T15:20:08.637Z,101017.97
2023-05-21T15:22:34.760Z,101009.34
2023-05-21T15:25:00.795Z,101002.97
2023-05-21T15:27:26.512Z,101004.09
2023-05-21T15:29:52.563Z,101000.50
2023-05-21T15:32:20.066Z,101000.19
2023-05-21T15:34:46.636Z,100997.75
2023-05-21T15:37:15.383Z,100989.41
2023-05-21T15:39:41.919Z,100986.97
2023-05-21T15:42:07.592Z,100987.78
2023-05-21T15:44:33.249Z,100976.38
2023-05-21T15:46:58.986Z,100981.94
2023-05-21T15:49:24.704Z,100983.88
2023-05-21T15:51:50.745Z,100985.00
2023-05-21T15:54:16.499Z,100983.88
2023-05-21T15:56:43.709Z,100983.56
2023-05-21T15:59:09.368Z,100988.28
2023-05-21T16:01:35.138Z,100987.16
2023-05-21T16:04:02.391Z,100988.59
2023-05-21T16:06:28.699Z,101002.47
2023-05-21T16:08:54.377Z,101001.63
2023-05-21T16:11:20.612Z,100994.66
2023-05-21T16:13:46.273Z,100991.88
2023-05-21T16:16:12.016Z,100990.78
2023-05-21T16:18:37.802Z,100991.06
2023-05-21T16:21:03.643Z,100991.06
2023-05-21T16:23:29.304Z,100994.66
2023-05-21T16:25:55.005Z,100995.78
2023-05-21T16:28:23.423Z,100991.88
2023-05-21T16:30:49.484Z,100991.88
2023-05-21T16:33:15.700Z,100988.28
2023-05-21T16:35:41.389Z,100989.94
2023-05-21T16:38:07.048Z,100985.53
2023-05-21T16:40:32.699Z,100989.41
2023-05-21T16:45:24.250Z,100984.38
2023-05-21T16:47:50.618Z,100986.34
2023-05-21T16:50:17.495Z,100982.75
2023-05-21T16:52:43.187Z,100983.88
2023-05-21T16:55:09.003Z,100981.94
2023-05-21T16:57:34.937Z,100985.25
2023-05-21T17:00:02.694Z,100990.53
2023-05-21T17:02:28.445Z,100981.09
2023-05-21T17:04:54.211Z,100982.75
2023-05-21T17:07:19.895Z,100990.25
2023-05-21T17:09:45.532Z,100988.59
2023-05-21T17:12:11.207Z,100985.81
2023-05-21T17:14:39.635Z,100993.00
2023-05-21T17:17:05.848Z,100997.44
2023-05-21T17:19:31.725Z,100996.59
2023-05-21T17:21:57.502Z,100992.69
2023-05-21T17:24:23.310Z,101007.41
2023-05-21T17:26:48.959Z,101006.56
2023-05-21T17:29:14.676Z,100997.75
2023-05-21T17:31:40.428Z,101006.06
2023-05-21T17:34:06.123Z,101003.78
2023-05-21T17:36:32.312Z,101006.06
2023-05-21T17:38:58.385Z,101000.19
2023-05-21T17:41:25.144Z,101006.56
2023-05-21T17:43:50.926Z,101012.41
2023-05-21T17:46:17.369Z,101005.47
2023-05-21T17:48:43.860Z,101009.06
2023-05-21T17:51:10.246Z,101010.19
2023-05-21T17:53:35.900Z,101015.72
2023-05-21T17:56:02.555Z,101010.47
2023-05-21T17:58:28.539Z,101014.38
2023-05-21T18:00:54.209Z,101012.97
2023-05-21T18:03:20.204Z,101018.50
2023-05-21T18:05:45.901Z,101015.44
2023-05-21T18:08:11.690Z,101014.88
2023-05-21T18:10:37.372Z,101004.91
2023-05-21T18:13:03.374Z,101010.19
2023-05-21T18:15:29.048Z,101003.78
2023-05-21T18:17:55.090Z,101010.19
2023-05-21T18:20:20.791Z,101002.97
2023-05-21T18:22:46.437Z,101007.69
2023-05-21T18:25:12.156Z,101002.97
2023-05-21T18:27:37.902Z,101008.25
2023-05-21T18:30:05.510Z,101002.97
2023-05-21T18:32:32.661Z,101016.00
2023-05-21T18:34:58.436Z,101016.56
2023-05-21T18:37:25.041Z,101014.88
2023-05-21T18:39:50.694Z,101012.09
2023-05-21T18:42:16.347Z,101024.06
2023-05-21T18:44:44.906Z,101034.00
2023-05-21T18:47:11.882Z,101024.06
2023-05-21T18:49:38.051Z,101021.78
2023-05-21T18:52:05.400Z,101029.59
2023-05-21T18:54:31.356Z,101033.47
2023-05-21T18:56:59.340Z,101045.38
2023-05-21T18:59:25.851Z,101048.13
2023-05-21T19:01:51.798Z,101054.81
2023-05-21T19:04:18.999Z,101065.06
2023-05-21T19:06:45.475Z,101057.59
2023-05-21T19:09:11.113Z,101073.09
2023-05-21T19:11:36.995Z,101078.94
2023-05-21T19:14:03.120Z,101067.53
2023-05-21T19:16:29.084Z,101071.16
2023-05-21T19:18:54.952Z,101065.06
2023-05-21T19:21:20.621Z,101072.00
2023-05-21T19:23:53.446Z,101060.91
2023-05-21T19:26:20.627Z,101056.47
2023-05-21T19:28:46.959Z,101056.19
2023-05-21T19:31:12.618Z,101051.75
2023-05-21T19:33:38.347Z,101045.38
2023-05-21T19:36:04.144Z,101031.50
2023-05-21T19:38:29.789Z,101028.75
2023-05-21T19:40:55.452Z,101022.38
2023-05-21T19:43:21.098Z,101021.28
2023-05-21T19:45:46.766Z,101025.16
2023-05-21T19:48:12.486Z,101024.06
2023-05-21T19:50:38.387Z,101018.50
2023-05-21T19:53:04.183Z,101023.50
2023-05-21T19:55:34.321Z,101014.59
2023-05-21T19:58:00.736Z,101030.41
2023-05-21T20:00:26.471Z,101025.97
2023-05-21T20:02:52.227Z,101022.38
2023-05-21T20:05:19.162Z,101022.09
2023-05-21T20:07:44.979Z,101021.47
2023-05-21T20:10:10.643Z,101015.72
2023-05-21T20:12:37.007Z,101018.19
2023-05-21T20:15:04.716Z,101025.38
2023-05-21T20:17:33.019Z,101024.88
2023-05-21T20:20:00.465Z,101019.31
2023-05-21T20:22:27.099Z,101021.28
2023-05-21T20:24:53.299Z,101016.56
2023-05-21T20:27:19.155Z,101022.63
2023-05-21T20:29:45.267Z,101020.16
2023-05-21T20:32:10.946Z,101017.66
2023-05-21T20:34:37.893Z,101013.47
2023-05-21T20:37:05.094Z,101021.28
2023-05-21T20:39:30.753Z,101009.88
2023-05-21T20:41:57.505Z,101010.69
2023-05-21T20:44:25.054Z,101002.69
2023-05-21T20:46:51.768Z,100996.03
2023-05-21T20:49:17.753Z,100989.34
2023-05-21T20:51:43.521Z,100985.75
2023-05-21T20:54:10.281Z,100977.75
2023-05-21T20:56:42.079Z,100981.34
2023-05-21T20:59:10.474Z,100973.84
2023-05-21T21:01:36.860Z,100985.25
2023-05-21T21:04:03.079Z,100993.25
2023-05-21T21:06:30.869Z,100995.19
2023-05-21T21:08:57.003Z,101003.50
2023-05-21T21:11:22.988Z,101003.50
2023-05-21T21:13:49.119Z,101006.28
2023-05-21T21:16:14.827Z,101009.88
2023-05-21T21:18:40.645Z,101009.88
2023-05-21T21:21:06.288Z,101010.41
2023-05-21T21:23:32.433Z,101009.88
2023-05-21T21:25:58.089Z,101004.66
2023-05-21T21:28:23.727Z,101007.09
2023-05-21T21:30:49.512Z,100998.78
2023-05-21T21:33:15.722Z,101000.44
2023-05-21T21:35:41.532Z,100999.94
2023-05-21T21:38:07.403Z,100999.09
2023-05-21T21:40:33.062Z,101004.34
2023-05-21T21:42:58.714Z,101005.47
2023-05-21T21:45:24.595Z,100999.94
2023-05-21T21:47:50.307Z,101001.56
2023-05-21T21:50:16.069Z,101010.69
2023-05-21T21:52:41.746Z,100992.44
2023-05-21T21:55:09.319Z,101007.09
2023-05-21T21:57:35.409Z,101008.75
2023-05-21T22:00:01.490Z,101005.16
2023-05-21T22:02:27.154Z,101009.88
2023-05-21T22:04:52.851Z,101004.34
2023-05-21T22:07:18.849Z,101011.84
2023-05-21T22:09:44.917Z,101003.50
2023-05-21T22:12:11.072Z,101013.78
2023-05-21T22:14:37.314Z,101010.19
2023-05-21T22:17:03.317Z,101009.88
2023-05-21T22:19:31.950Z,101002.69
2023-05-21T22:22:01.175Z,101004.66
2023-05-21T22:24:32.564Z,100997.97
2023-05-21T22:26:58.959Z,100993.25
2023-05-21T22:29:24.658Z,101001.03
2023-05-21T22:31:50.400Z,100996.84
2023-05-21T22:34:16.061Z,100996.84
2023-05-21T22:36:43.852Z,101004.34
2023-05-21T22:39:09.524Z,100997.97
2023-05-21T22:41:35.177Z,100997.16
2023-05-21T22:44:00.823Z,100994.38
2023-05-21T22:46:26.530Z,100989.66
2023-05-21T22:48:53.061Z,100990.25
2023-05-21T22:51:18.791Z,100994.06
2023-05-21T22:53:44.651Z,100989.13
2023-05-21T22:56:10.514Z,100986.06
2023-05-21T22:58:36.229Z,100987.16
2023-05-21T23:01:03.566Z,100990.25
2023-05-21T23:03:29.253Z,100982.75
2023-05-21T23:05:54.955Z,100984.13
2023-05-21T23:08:20.594Z,100988.53
2023-05-21T23:10:46.238Z,100985.75
2023-05-21T23:13:12.017Z,100984.63
2023-05-21T23:15:37.949Z,100986.34
2023-05-21T23:18:04.003Z,100978.56
2023-05-21T23:20:31.496Z,100994.06
2023-05-21T23:22:57.217Z,100983.28
2023-05-21T23:25:22.850Z,100991.59
2023-05-21T23:27:48.518Z,100992.69
2023-05-21T23:30:14.268Z,100995.47
2023-05-21T23:32:40.103Z,100992.44
2023-05-21T23:35:06.684Z,100994.66
2023-05-21T23:37:32.390Z,100996.31
2023-05-21T23:39:58.052Z,100997.97
2023-05-21T23:42:23.760Z,100996.31
2023-05-21T23:44:49.427Z,100994.13
2023-05-21T23:47:15.107Z,100992.69
2023-05-21T23:49:40.761Z,100989.66
2023-05-21T23:52:06.596Z,100986.06
2023-05-21T23:54:32.254Z,100991.88
2023-05-21T23:56:57.890Z,100985.53
2023-05-21T23:59:23.548Z,100986.06
